Time;durP1;ratioP1;P1;durP2;ratioP2;P2;SDS_P1;SDS_P2;PMS_P1;PMS_P2;Temp;Humidity;BMP_temperature;BMP_pressure;BME280_temperature;BME280_humidity;BME280_pressure;Samples;Min_cycle;Max_cycle;Signal;HPM_P1;HPM_P2
2022/11/29 00:01:39;;;;;;;22.43;13.30;;;10.60;99.90;;;;;;4988342;28;20304;-31
2022/11/29 00:04:27;;;;;;;22.13;13.60;;;10.60;99.90;;;;;;4988277;28;20369;-31
2022/11/29 00:07:12;;;;;;;19.60;12.47;;;10.60;99.90;;;;;;4988138;28;20212;-31
2022/11/29 00:09:39;;;;;;;21.13;13.23;;;10.50;99.90;;;;;;4987646;28;20740;-31
2022/11/29 00:12:11;;;;;;;19.10;13.33;;;10.50;99.90;;;;;;4988324;28;20297;-31
2022/11/29 00:14:38;;;;;;;21.73;13.03;;;10.40;99.90;;;;;;4988296;28;20343;-30
2022/11/29 00:17:06;;;;;;;19.90;12.57;;;10.40;99.90;;;;;;4987340;28;20236;-30
2022/11/29 00:19:36;;;;;;;24.63;13.63;;;10.40;99.90;;;;;;4987640;28;20202;-31
2022/11/29 00:22:08;;;;;;;20.70;13.37;;;10.40;99.90;;;;;;4987149;28;20221;-31
2022/11/29 00:24:36;;;;;;;20.53;13.67;;;10.30;99.90;;;;;;4988157;28;20202;-31
2022/11/29 00:27:05;;;;;;;24.60;13.23;;;10.30;99.90;;;;;;4987709;28;20214;-31
2022/11/29 00:29:35;;;;;;;23.03;13.30;;;10.30;99.90;;;;;;4987536;28;20337;-31
2022/11/29 00:32:04;;;;;;;20.30;13.03;;;10.30;99.90;;;;;;4987536;28;20202;-31
2022/11/29 00:34:33;;;;;;;22.57;13.27;;;10.20;99.90;;;;;;4986000;28;20285;-31
2022/11/29 00:37:19;;;;;;;19.80;12.30;;;10.20;99.90;;;;;;4987624;28;20241;-30
2022/11/29 00:39:46;;;;;;;21.20;13.27;;;10.10;99.90;;;;;;4987252;28;20226;-31
2022/11/29 00:42:14;;;;;;;24.90;14.47;;;10.10;99.90;;;;;;4986906;28;20198;-31
2022/11/29 00:44:41;;;;;;;21.43;13.50;;;10.10;99.90;;;;;;4987302;28;20669;-31
2022/11/29 00:47:13;;;;;;;21.87;13.13;;;10.00;99.90;;;;;;4987358;28;20225;-31
2022/11/29 00:49:42;;;;;;;22.50;13.40;;;10.00;99.90;;;;;;4987300;28;20760;-31
2022/11/29 00:52:09;;;;;;;20.00;13.10;;;10.00;99.90;;;;;;4986976;28;20201;-31
2022/11/29 00:54:37;;;;;;;21.13;13.47;;;9.90;99.90;;;;;;4987094;28;20214;-31
2022/11/29 00:57:06;;;;;;;19.13;13.27;;;9.90;99.90;;;;;;4986952;28;20257;-31
2022/11/29 00:59:36;;;;;;;24.07;13.47;;;9.90;99.90;;;;;;4986838;28;20704;-31
2022/11/29 01:02:03;;;;;;;17.77;13.03;;;9.90;99.90;;;;;;4990353;28;20241;-31
2022/11/29 01:04:33;;;;;;;19.10;12.77;;;9.80;99.90;;;;;;5006227;28;20210;-31
2022/11/29 01:07:02;;;;;;;18.53;12.73;;;9.80;99.90;;;;;;5006455;28;20201;-31
2022/11/29 01:09:32;;;;;;;21.77;12.73;;;9.80;99.90;;;;;;5006585;28;20206;-31
2022/11/29 01:12:03;;;;;;;20.57;13.20;;;9.80;99.90;;;;;;5006711;28;20246;-31
2022/11/29 01:14:30;;;;;;;20.67;13.60;;;9.80;99.90;;;;;;5006703;28;20205;-31
2022/11/29 01:16:59;;;;;;;17.47;13.63;;;9.70;99.90;;;;;;5006367;28;20217;-31
2022/11/29 01:19:27;;;;;;;19.83;13.63;;;9.70;99.90;;;;;;5006690;28;20308;-31
2022/11/29 01:21:54;;;;;;;18.23;14.33;;;9.70;99.90;;;;;;5006542;28;20260;-31
2022/11/29 01:24:21;;;;;;;20.57;13.60;;;9.70;99.90;;;;;;5005901;28;20213;-31
2022/11/29 01:26:48;;;;;;;19.63;13.83;;;9.60;99.90;;;;;;5006272;28;20209;-31
2022/11/29 01:29:15;;;;;;;22.47;13.57;;;9.60;99.90;;;;;;5006648;28;20726;-31
2022/11/29 01:31:43;;;;;;;19.97;14.73;;;9.60;99.90;;;;;;5006218;28;20241;-30
2022/11/29 01:34:10;;;;;;;18.27;13.37;;;9.60;99.90;;;;;;5021344;28;20202;-31
2022/11/29 01:36:39;;;;;;;18.03;13.90;;;9.50;99.90;;;;;;5004960;28;20711;-31
2022/11/29 01:39:09;;;;;;;21.77;14.53;;;9.50;99.90;;;;;;5006395;28;20229;-31
2022/11/29 01:41:36;;;;;;;20.77;14.50;;;9.50;99.90;;;;;;5006206;28;20198;-31
2022/11/29 01:44:27;;;;;;;19.77;13.97;;;9.40;99.90;;;;;;5006185;28;20237;-31
2022/11/29 01:46:57;;;;;;;21.27;14.63;;;9.40;99.90;;;;;;5006222;28;20742;-31
2022/11/29 01:49:43;;;;;;;20.63;14.60;;;9.40;99.90;;;;;;5006325;28;20241;-31
2022/11/29 01:52:26;;;;;;;17.97;13.47;;;9.40;99.90;;;;;;5005602;28;20562;-31
2022/11/29 01:55:05;;;;;;;18.43;13.30;;;9.40;99.90;;;;;;5009983;28;20210;-31
2022/11/29 01:57:38;;;;;;;20.70;14.20;;;9.30;99.90;;;;;;5009019;28;20655;-31
2022/11/29 02:00:14;;;;;;;21.27;15.27;;;9.30;99.90;;;;;;4997045;28;20198;-31
2022/11/29 02:02:45;;;;;;;18.27;14.23;;;9.30;99.90;;;;;;4993491;28;20277;-31
2022/11/29 02:05:15;;;;;;;22.30;16.03;;;9.30;99.90;;;;;;5004513;28;20213;-31
2022/11/29 02:07:48;;;;;;;22.37;14.30;;;9.30;99.90;;;;;;5010506;28;20221;-31
2022/11/29 02:10:21;;;;;;;19.40;14.50;;;9.30;99.90;;;;;;5009703;28;20312;-31
2022/11/29 02:13:22;;;;;;;18.73;13.97;;;9.20;99.90;;;;;;5009278;28;20222;-31
2022/11/29 02:16:03;;;;;;;17.37;13.60;;;9.20;99.90;;;;;;4999030;28;20297;-31
2022/11/29 02:18:41;;;;;;;18.47;14.17;;;9.20;99.90;;;;;;5007401;28;20668;-31
2022/11/29 02:21:20;;;;;;;21.27;14.80;;;9.20;99.90;;;;;;5008773;28;20241;-30
2022/11/29 02:24:01;;;;;;;23.10;15.83;;;9.20;99.90;;;;;;4995447;28;20267;-31
2022/11/29 02:26:56;;;;;;;29.83;15.77;;;9.20;99.90;;;;;;5008671;28;20237;-31
2022/11/29 02:29:44;;;;;;;18.07;13.57;;;9.20;99.90;;;;;;5008830;28;20205;-31
2022/11/29 02:32:32;;;;;;;20.37;14.40;;;9.20;99.90;;;;;;5009481;28;20772;-31
2022/11/29 02:35:24;;;;;;;20.03;14.33;;;9.10;99.90;;;;;;5009271;28;20584;-33
2022/11/29 02:38:15;;;;;;;16.13;13.43;;;9.10;99.90;;;;;;5008929;28;20926;-33
2022/11/29 02:40:59;;;;;;;19.17;13.57;;;9.00;99.90;;;;;;5024033;28;20201;-32
2022/11/29 02:44:01;;;;;;;16.33;13.90;;;9.00;99.90;;;;;;5008987;28;20370;-32
2022/11/29 02:46:49;;;;;;;15.53;12.50;;;9.00;99.90;;;;;;5009041;28;20214;-33
2022/11/29 02:49:42;;;;;;;17.13;13.90;;;9.00;99.90;;;;;;5009181;28;20271;-33
2022/11/29 02:52:43;;;;;;;15.80;13.20;;;9.00;99.90;;;;;;4998237;28;20222;-33
2022/11/29 02:55:20;;;;;;;15.03;12.70;;;9.00;99.90;;;;;;5008577;28;20201;-33
2022/11/29 02:58:21;;;;;;;17.00;13.67;;;8.90;99.90;;;;;;5009118;28;20236;-32
2022/11/29 03:01:09;;;;;;;14.60;12.60;;;9.00;99.90;;;;;;5008657;28;20635;-33
2022/11/29 03:04:03;;;;;;;13.47;11.93;;;9.00;99.90;;;;;;5007752;28;20209;-33
2022/11/29 03:06:43;;;;;;;15.33;11.90;;;8.90;99.90;;;;;;5008400;28;20198;-33
2022/11/29 03:09:18;;;;;;;15.13;11.93;;;8.90;99.90;;;;;;5008503;28;20213;-32
2022/11/29 03:11:58;;;;;;;12.00;10.80;;;8.80;99.90;;;;;;5008409;28;20213;-32
2022/11/29 03:14:46;;;;;;;13.17;11.33;;;8.80;99.90;;;;;;5006754;28;20688;-32
2022/11/29 03:17:30;;;;;;;12.13;10.87;;;8.80;99.90;;;;;;5007676;28;20248;-32
2022/11/29 03:20:09;;;;;;;12.20;11.00;;;8.70;99.90;;;;;;5023016;28;20766;-33
2022/11/29 03:22:47;;;;;;;11.80;10.60;;;8.70;99.90;;;;;;5008166;28;20202;-33
2022/11/29 03:25:23;;;;;;;10.90;9.70;;;8.70;99.90;;;;;;5007729;28;20216;-33
2022/11/29 03:28:32;;;;;;;11.73;10.53;;;8.60;99.90;;;;;;5007737;28;20727;-32
2022/11/29 03:31:34;;;;;;;12.63;10.50;;;8.60;99.90;;;;;;5007362;28;20209;-33
2022/11/29 03:34:06;;;;;;;11.23;10.07;;;8.60;99.90;;;;;;5002901;28;20296;-32
2022/11/29 03:37:02;;;;;;;11.07;9.90;;;8.50;99.90;;;;;;5007490;28;20220;-32
2022/11/29 03:39:56;;;;;;;12.03;10.60;;;8.50;99.90;;;;;;5007862;28;20213;-31
2022/11/29 03:42:58;;;;;;;12.07;10.77;;;8.50;99.90;;;;;;4996796;28;20213;-31
2022/11/29 03:45:41;;;;;;;12.50;10.53;;;8.40;99.90;;;;;;5007369;28;20208;-33
2022/11/29 03:48:13;;;;;;;11.93;10.63;;;8.40;99.90;;;;;;5007176;28;20237;-32
2022/11/29 03:50:53;;;;;;;12.23;11.03;;;8.40;99.90;;;;;;5007190;28;20216;-33
2022/11/29 03:53:41;;;;;;;12.63;11.33;;;8.40;99.90;;;;;;5007362;28;20638;-33
2022/11/29 03:56:29;;;;;;;11.77;10.67;;;8.40;99.90;;;;;;5022163;28;20213;-33
2022/11/29 03:59:27;;;;;;;12.50;11.20;;;8.40;99.90;;;;;;5007431;28;20204;-32
2022/11/29 04:02:18;;;;;;;11.67;10.47;;;8.40;99.90;;;;;;5007509;28;20334;-32
2022/11/29 04:05:15;;;;;;;11.50;10.30;;;8.40;99.90;;;;;;5006904;28;20730;-32
2022/11/29 04:08:07;;;;;;;12.07;10.70;;;8.40;99.90;;;;;;5006848;28;20262;-32
2022/11/29 04:11:04;;;;;;;12.70;10.80;;;8.40;99.90;;;;;;5007037;28;20272;-33
2022/11/29 04:13:37;;;;;;;12.47;10.77;;;8.40;99.90;;;;;;5006919;28;20244;-32
2022/11/29 04:16:16;;;;;;;12.17;10.87;;;8.40;99.90;;;;;;5006442;28;20229;-31
2022/11/29 04:19:08;;;;;;;11.50;10.30;;;8.40;99.90;;;;;;5006804;28;20217;-32
2022/11/29 04:22:12;;;;;;;11.43;10.23;;;8.40;99.90;;;;;;5006967;28;20208;-33
2022/11/29 04:25:10;;;;;;;12.53;10.93;;;8.30;99.90;;;;;;5006804;28;20300;-32
2022/11/29 04:28:04;;;;;;;11.27;10.17;;;8.30;99.90;;;;;;5006458;28;20270;-33
2022/11/29 04:31:10;;;;;;;11.60;10.00;;;8.30;99.90;;;;;;5006587;28;20643;-32
2022/11/29 04:33:50;;;;;;;13.87;10.90;;;8.40;99.90;;;;;;5006503;28;20208;-33
2022/11/29 04:36:28;;;;;;;12.50;10.37;;;8.40;99.90;;;;;;5006184;28;20308;-32
2022/11/29 04:39:04;;;;;;;12.60;10.87;;;8.40;99.90;;;;;;5006715;28;20292;-33
2022/11/29 04:42:01;;;;;;;11.40;10.20;;;8.40;99.90;;;;;;5006562;28;20289;-33
2022/11/29 04:44:54;;;;;;;12.70;11.10;;;8.40;99.90;;;;;;5006489;28;20209;-32
2022/11/29 04:47:49;;;;;;;12.30;11.00;;;8.40;99.90;;;;;;5003912;28;20325;-32
2022/11/29 04:50:52;;;;;;;11.77;10.57;;;8.50;99.90;;;;;;5006368;28;20676;-33
2022/11/29 04:53:50;;;;;;;12.07;10.77;;;8.50;99.90;;;;;;5003384;28;20712;-32
2022/11/29 04:56:27;;;;;;;11.97;10.23;;;8.50;99.90;;;;;;5006314;28;20198;-33
2022/11/29 04:59:39;;;;;;;12.23;10.93;;;8.50;99.90;;;;;;5006591;28;20202;-33
2022/11/29 05:02:30;;;;;;;13.07;11.07;;;8.50;99.90;;;;;;4994351;28;20312;-32
2022/11/29 05:05:20;;;;;;;12.17;10.87;;;8.50;99.90;;;;;;5006203;28;20201;-32
2022/11/29 05:08:12;;;;;;;13.10;10.80;;;8.50;99.90;;;;;;5006107;28;20206;-33
2022/11/29 05:10:48;;;;;;;11.97;10.73;;;8.50;99.90;;;;;;5006251;28;20229;-32
2022/11/29 05:13:30;;;;;;;11.93;10.47;;;8.50;99.90;;;;;;5006106;28;20238;-33
2022/11/29 05:16:16;;;;;;;12.57;11.27;;;8.60;99.90;;;;;;5006079;28;20233;-32
2022/11/29 05:19:02;;;;;;;12.67;10.80;;;8.60;99.90;;;;;;5006105;28;20229;-32
2022/11/29 05:22:14;;;;;;;11.07;9.97;;;8.60;99.90;;;;;;5006054;28;20206;-33
2022/11/29 05:25:13;;;;;;;11.40;10.20;;;8.60;99.90;;;;;;5006237;28;20225;-33
2022/11/29 05:27:53;;;;;;;12.50;10.33;;;8.60;99.90;;;;;;5008078;28;20592;-32
2022/11/29 05:30:30;;;;;;;13.10;10.17;;;8.60;99.90;;;;;;5025400;28;20644;-33
2022/11/29 05:33:19;;;;;;;11.27;10.17;;;8.60;99.90;;;;;;5010121;28;20248;-32
2022/11/29 05:36:10;;;;;;;12.37;10.00;;;8.60;99.90;;;;;;5010299;28;20205;-32
2022/11/29 05:38:39;;;;;;;10.93;9.83;;;8.60;99.90;;;;;;5010475;28;20229;-31
2022/11/29 05:41:32;;;;;;;12.53;10.30;;;8.60;99.90;;;;;;5025503;28;20284;-31
2022/11/29 05:44:12;;;;;;;11.60;10.13;;;8.60;99.90;;;;;;5010476;28;20227;-31
2022/11/29 05:46:48;;;;;;;11.23;10.00;;;8.60;99.90;;;;;;5010369;28;20339;-31
2022/11/29 05:49:51;;;;;;;11.43;10.33;;;8.60;99.90;;;;;;5010095;28;20240;-31
2022/11/29 05:52:24;;;;;;;12.47;11.17;;;8.70;99.90;;;;;;5010224;28;20746;-31
2022/11/29 05:55:09;;;;;;;11.83;10.47;;;8.70;99.90;;;;;;5009945;28;20284;-31
2022/11/29 05:57:41;;;;;;;12.43;10.00;;;8.70;99.90;;;;;;5008262;28;20665;-31
2022/11/29 06:00:11;;;;;;;12.20;10.40;;;8.70;99.90;;;;;;5009685;28;20280;-31
2022/11/29 06:02:43;;;;;;;11.27;10.07;;;8.70;99.90;;;;;;5009807;28;20210;-31
2022/11/29 06:05:29;;;;;;;12.53;10.77;;;8.80;99.90;;;;;;5009878;28;20571;-30
2022/11/29 06:08:38;;;;;;;14.10;11.00;;;8.80;99.90;;;;;;5009527;28;20213;-31
2022/11/29 06:11:12;;;;;;;13.20;10.80;;;8.80;99.90;;;;;;5003257;28;20300;-31
2022/11/29 06:14:08;;;;;;;12.83;10.17;;;8.80;99.90;;;;;;5009701;28;20587;-31
2022/11/29 06:16:42;;;;;;;12.30;10.27;;;8.80;99.90;;;;;;5009544;28;20205;-32
2022/11/29 06:19:31;;;;;;;11.53;10.10;;;8.90;99.90;;;;;;5009496;28;20260;-33
2022/11/29 06:22:04;;;;;;;12.70;10.50;;;8.90;99.90;;;;;;5009498;28;20220;-32
2022/11/29 06:24:55;;;;;;;14.83;10.77;;;8.90;99.90;;;;;;5009228;28;20296;-31
2022/11/29 06:27:42;;;;;;;12.97;11.00;;;8.90;99.90;;;;;;5023271;28;20202;-31
2022/11/29 06:30:15;;;;;;;13.00;10.80;;;8.90;99.90;;;;;;5009155;28;20761;-32
2022/11/29 06:32:45;;;;;;;13.57;10.57;;;8.90;99.90;;;;;;5009137;28;20205;-32
2022/11/29 06:35:33;;;;;;;12.10;10.60;;;8.90;99.90;;;;;;5009246;28;20563;-32
2022/11/29 06:38:25;;;;;;;16.03;11.17;;;8.90;99.90;;;;;;5009023;28;20236;-32
2022/11/29 06:40:53;;;;;;;12.53;11.23;;;8.90;99.90;;;;;;5008555;28;20218;-32
2022/11/29 06:43:32;;;;;;;15.10;10.83;;;8.90;99.90;;;;;;5008804;28;20585;-31
2022/11/29 06:46:12;;;;;;;13.00;10.37;;;8.90;99.90;;;;;;5009147;28;20267;-31
2022/11/29 06:49:13;;;;;;;14.37;11.20;;;8.90;99.90;;;;;;5023436;28;20233;-31
2022/11/29 06:51:58;;;;;;;15.50;10.90;;;8.90;99.90;;;;;;4999706;28;20213;-31
2022/11/29 06:54:50;;;;;;;12.03;10.70;;;8.90;99.90;;;;;;5008268;28;20209;-31
2022/11/29 06:57:36;;;;;;;13.97;10.23;;;8.90;99.90;;;;;;5023075;28;20712;-31
2022/11/29 07:00:22;;;;;;;11.60;10.00;;;8.90;99.90;;;;;;5023045;28;20608;-31
2022/11/29 07:03:05;;;;;;;12.63;10.30;;;8.90;99.90;;;;;;5023647;28;20228;-31
2022/11/29 07:05:35;;;;;;;15.10;11.13;;;8.90;99.90;;;;;;5008664;28;20206;-31
2022/11/29 07:08:16;;;;;;;13.13;10.90;;;8.90;99.90;;;;;;5008420;28;20210;-31
2022/11/29 07:10:45;;;;;;;15.07;12.00;;;8.90;99.90;;;;;;5008779;28;20225;-31
2022/11/29 07:13:15;;;;;;;15.07;10.90;;;8.90;99.90;;;;;;5008318;28;20202;-31
2022/11/29 07:16:28;;;;;;;14.10;11.17;;;8.90;99.90;;;;;;5008543;28;20348;-31
2022/11/29 07:19:13;;;;;;;18.77;11.60;;;8.90;99.90;;;;;;5005304;28;20299;-31
2022/11/29 07:22:06;;;;;;;14.57;11.40;;;8.90;99.90;;;;;;5007664;28;20197;-31
2022/11/29 07:24:54;;;;;;;15.33;11.33;;;8.90;99.90;;;;;;5008076;28;20267;-31
2022/11/29 07:27:46;;;;;;;15.00;12.10;;;8.90;99.90;;;;;;5007737;28;20313;-31
2022/11/29 07:30:24;;;;;;;17.67;11.50;;;8.90;99.90;;;;;;5008072;28;20857;-31
2022/11/29 07:33:02;;;;;;;16.97;11.23;;;8.90;99.90;;;;;;5007428;28;20723;-31
2022/11/29 07:35:32;;;;;;;18.90;11.33;;;8.90;99.90;;;;;;5007335;28;20197;-31
2022/11/29 07:38:43;;;;;;;13.90;10.17;;;8.90;99.90;;;;;;5007139;28;20225;-31
2022/11/29 07:41:27;;;;;;;12.90;10.63;;;8.90;99.90;;;;;;5007315;28;20237;-31
2022/11/29 07:44:22;;;;;;;14.43;10.60;;;8.90;99.90;;;;;;5007135;28;20300;-31
2022/11/29 07:46:49;;;;;;;13.67;10.33;;;8.90;99.90;;;;;;5007586;28;20197;-32
2022/11/29 07:49:19;;;;;;;15.30;10.83;;;9.00;99.90;;;;;;5007657;28;20627;-32
2022/11/29 07:51:46;;;;;;;15.00;10.60;;;8.90;99.90;;;;;;5007105;28;20206;-32
2022/11/29 07:54:21;;;;;;;20.37;11.33;;;9.00;99.90;;;;;;5021142;28;20579;-33
2022/11/29 07:56:48;;;;;;;21.10;12.03;;;9.00;99.90;;;;;;5005468;28;20222;-32
2022/11/29 07:59:16;;;;;;;20.73;11.40;;;9.00;99.90;;;;;;5006875;28;20312;-32
2022/11/29 08:01:43;;;;;;;19.47;11.13;;;9.00;99.90;;;;;;5007042;28;20229;-33
2022/11/29 08:04:10;;;;;;;18.33;11.27;;;9.00;99.90;;;;;;5006806;28;20316;-33
2022/11/29 08:06:37;;;;;;;26.20;12.03;;;9.00;99.90;;;;;;5005242;28;20202;-32
2022/11/29 08:09:07;;;;;;;23.17;12.47;;;9.00;99.90;;;;;;5007116;28;20600;-32
2022/11/29 08:11:34;;;;;;;22.53;12.03;;;9.00;99.90;;;;;;5007044;28;20572;-32
2022/11/29 08:14:02;;;;;;;16.27;11.43;;;9.00;99.90;;;;;;5007205;28;20283;-32
2022/11/29 08:16:30;;;;;;;14.00;11.03;;;9.00;99.90;;;;;;5006786;28;20374;-32
2022/11/29 08:18:57;;;;;;;12.60;10.50;;;9.00;99.90;;;;;;5006965;28;20221;-32
2022/11/29 08:21:25;;;;;;;16.57;10.03;;;9.10;99.90;;;;;;5006691;28;20206;-32
2022/11/29 08:23:52;;;;;;;12.60;9.80;;;9.10;99.90;;;;;;5006545;28;20300;-32
2022/11/29 08:26:22;;;;;;;14.00;10.90;;;9.20;99.90;;;;;;5021318;28;20603;-32
2022/11/29 08:28:59;;;;;;;16.47;12.33;;;9.20;99.90;;;;;;5006570;28;20300;-33
2022/11/29 08:31:26;;;;;;;17.87;10.90;;;9.20;99.90;;;;;;5021039;28;20206;-32
2022/11/29 08:33:56;;;;;;;15.43;11.17;;;9.30;99.90;;;;;;5006317;28;20207;-32
2022/11/29 08:36:23;;;;;;;16.37;11.63;;;9.30;99.90;;;;;;5006289;28;20202;-32
2022/11/29 08:38:53;;;;;;;13.93;11.00;;;9.30;99.90;;;;;;5006164;28;20716;-33
2022/11/29 08:41:29;;;;;;;14.80;11.17;;;9.30;99.90;;;;;;5006516;28;20366;-32
2022/11/29 08:43:59;;;;;;;13.23;11.07;;;9.30;99.90;;;;;;5006253;28;20214;-32
2022/11/29 08:47:34;;;;;;;15.93;11.33;;;9.30;99.90;;;;;;5021266;28;20194;-33
2022/11/29 08:49:16;;;;;;;17.97;11.77;;;9.40;99.90;;;;;;5006133;28;20825;-32
2022/11/29 08:51:46;;;;;;;16.57;11.43;;;9.40;99.90;;;;;;5006273;28;20252;-33
2022/11/29 08:54:13;;;;;;;18.40;11.27;;;9.40;99.90;;;;;;5006223;28;20201;-33
2022/11/29 08:56:43;;;;;;;21.77;12.00;;;9.40;99.90;;;;;;5005967;28;20597;-33
2022/11/29 08:59:33;;;;;;;22.40;11.30;;;9.50;99.90;;;;;;5005852;28;20237;-33
2022/11/29 09:02:02;;;;;;;37.13;13.70;;;9.50;99.90;;;;;;5005926;28;20689;-32
2022/11/29 09:04:32;;;;;;;39.93;13.60;;;9.60;99.90;;;;;;5006354;28;20212;-32
2022/11/29 09:07:03;;;;;;;21.43;11.73;;;9.60;99.90;;;;;;5005789;28;20240;-33
2022/11/29 09:09:34;;;;;;;23.47;12.47;;;9.70;99.90;;;;;;5006347;28;20260;-33
2022/11/29 09:12:01;;;;;;;30.13;14.07;;;9.70;99.90;;;;;;5005950;28;20253;-32
2022/11/29 09:14:31;;;;;;;24.27;12.03;;;9.70;99.90;;;;;;5005877;28;20236;-32
2022/11/29 09:17:00;;;;;;;21.07;11.93;;;9.80;99.90;;;;;;5006091;28;20205;-31
2022/11/29 09:19:30;;;;;;;17.27;11.33;;;9.80;99.90;;;;;;5005801;28;20225;-33
2022/11/29 09:21:59;;;;;;;17.53;12.13;;;9.90;99.90;;;;;;5005946;28;20485;-32
2022/11/29 09:24:32;;;;;;;16.40;11.97;;;9.90;99.90;;;;;;5006320;28;20205;-33
2022/11/29 09:26:59;;;;;;;16.03;11.97;;;9.90;99.90;;;;;;5006168;28;20209;-32
2022/11/29 09:29:28;;;;;;;14.93;10.90;;;10.00;99.90;;;;;;5005741;28;20267;-32
2022/11/29 09:31:55;;;;;;;15.53;11.00;;;10.00;99.90;;;;;;5005807;28;20221;-33
2022/11/29 09:34:23;;;;;;;13.77;10.37;;;10.00;99.90;;;;;;5006433;28;20564;-32
2022/11/29 09:36:53;;;;;;;14.67;11.57;;;10.10;99.90;;;;;;5006345;28;20198;-32
2022/11/29 09:39:22;;;;;;;15.80;11.93;;;10.10;99.90;;;;;;5006387;28;20238;-32
2022/11/29 09:41:59;;;;;;;16.53;12.27;;;10.10;99.90;;;;;;5006061;28;20674;-32
2022/11/29 09:44:35;;;;;;;16.30;12.60;;;10.10;99.90;;;;;;5005785;28;20208;-33
2022/11/29 09:47:55;;;;;;;13.50;10.77;;;10.10;99.90;;;;;;5021244;28;20421;-32
2022/11/29 09:50:41;;;;;;;16.10;11.27;;;10.10;99.90;;;;;;4998132;28;20226;-33
2022/11/29 09:53:24;;;;;;;13.57;10.83;;;10.20;99.90;;;;;;5006166;28;20226;-32
2022/11/29 09:56:18;;;;;;;16.53;11.07;;;10.20;99.90;;;;;;5006012;28;20676;-32
2022/11/29 09:58:59;;;;;;;25.33;12.23;;;10.20;99.90;;;;;;5006218;28;20739;-33
2022/11/29 10:01:36;;;;;;;17.50;11.70;;;10.20;99.90;;;;;;5005913;28;20256;-33
2022/11/29 10:04:15;;;;;;;19.53;11.67;;;10.20;99.90;;;;;;5006036;28;20220;-32
2022/11/29 10:07:14;;;;;;;21.50;12.93;;;10.20;99.90;;;;;;5005934;28;20206;-31
2022/11/29 10:09:47;;;;;;;24.60;12.70;;;10.30;99.90;;;;;;5004654;28;20206;-32
2022/11/29 10:12:21;;;;;;;15.47;11.57;;;10.30;99.90;;;;;;5006809;28;20520;-33
2022/11/29 10:15:02;;;;;;;18.70;11.30;;;10.30;99.90;;;;;;5007924;28;20691;-33
2022/11/29 10:17:40;;;;;;;21.80;12.40;;;10.30;99.90;;;;;;5010066;28;20735;-33
2022/11/29 10:20:23;;;;;;;18.90;11.53;;;10.30;99.90;;;;;;5023929;28;20252;-32
2022/11/29 10:23:13;;;;;;;15.87;12.23;;;10.40;99.90;;;;;;5009317;28;20290;-32
2022/11/29 10:25:49;;;;;;;14.67;11.37;;;10.40;99.90;;;;;;5009355;28;20638;-32
2022/11/29 10:28:25;;;;;;;15.90;11.60;;;10.50;99.90;;;;;;5007930;28;20212;-32
2022/11/29 10:30:55;;;;;;;13.63;11.67;;;10.50;99.90;;;;;;5009671;28;20256;-33
2022/11/29 10:33:34;;;;;;;14.17;11.57;;;10.50;99.90;;;;;;5009435;28;20213;-33
2022/11/29 10:36:10;;;;;;;17.00;12.07;;;10.60;99.90;;;;;;5009203;28;20269;-33
2022/11/29 10:38:41;;;;;;;17.20;11.80;;;10.60;99.90;;;;;;5009209;28;20275;-33
2022/11/29 10:41:17;;;;;;;16.73;12.67;;;10.60;99.90;;;;;;5007718;28;20194;-33
2022/11/29 10:43:48;;;;;;;15.10;11.37;;;10.60;99.90;;;;;;5008936;28;20205;-32
2022/11/29 10:46:32;;;;;;;17.90;11.90;;;10.70;99.90;;;;;;5008722;28;20222;-32
2022/11/29 10:49:03;;;;;;;15.23;11.63;;;10.70;99.90;;;;;;5008724;28;20265;-33
2022/11/29 10:51:37;;;;;;;15.77;13.20;;;10.80;99.90;;;;;;5008424;28;20225;-33
2022/11/29 10:54:37;;;;;;;19.03;12.33;;;10.80;99.90;;;;;;5008480;28;20688;-33
2022/11/29 10:57:16;;;;;;;15.10;12.13;;;10.80;99.90;;;;;;5008366;28;20212;-33
2022/11/29 11:00:03;;;;;;;16.60;11.83;;;10.80;99.90;;;;;;5008533;28;20291;-32
2022/11/29 11:02:33;;;;;;;14.90;11.80;;;10.90;99.90;;;;;;5023813;28;20198;-33
2022/11/29 11:05:01;;;;;;;14.27;11.00;;;10.90;99.90;;;;;;5008255;28;20248;-33
2022/11/29 11:07:34;;;;;;;14.20;12.00;;;10.90;99.90;;;;;;5008581;28;20200;-33
2022/11/29 11:10:35;;;;;;;16.07;11.80;;;10.90;99.90;;;;;;5008360;28;20205;-33
2022/11/29 11:13:18;;;;;;;16.00;11.90;;;11.00;99.90;;;;;;5008339;28;20241;-33
2022/11/29 11:15:46;;;;;;;15.30;11.47;;;11.00;99.90;;;;;;5008501;28;20229;-33
2022/11/29 11:18:21;;;;;;;17.37;11.53;;;11.00;99.90;;;;;;5008163;28;20226;-33
2022/11/29 11:20:56;;;;;;;14.23;11.93;;;11.10;99.90;;;;;;5007749;28;20194;-33
2022/11/29 11:23:30;;;;;;;16.20;11.83;;;11.20;99.90;;;;;;5007715;28;20360;-33
2022/11/29 11:26:12;;;;;;;16.67;11.30;;;11.20;99.90;;;;;;5007644;28;20457;-33
2022/11/29 11:28:56;;;;;;;17.30;11.67;;;11.20;99.90;;;;;;5008476;28;20244;-33
2022/11/29 11:31:37;;;;;;;18.50;12.17;;;11.30;99.90;;;;;;5022637;28;20288;-33
2022/11/29 11:34:25;;;;;;;15.00;10.73;;;11.30;99.90;;;;;;5008008;28;20220;-33
2022/11/29 11:37:09;;;;;;;15.40;11.30;;;11.30;99.90;;;;;;5007747;28;20201;-33
2022/11/29 11:39:37;;;;;;;16.17;12.43;;;11.30;99.90;;;;;;5007628;28;20260;-33
2022/11/29 11:44:53;;;;;;;12.63;9.90;;;11.30;99.90;;;;;;5008044;28;20209;-33
2022/11/29 11:47:33;;;;;;;15.33;10.60;;;11.40;99.90;;;;;;5007676;28;20221;-33
2022/11/29 11:50:03;;;;;;;13.80;10.57;;;11.40;99.90;;;;;;5007199;28;20316;-33
2022/11/29 11:52:52;;;;;;;15.50;10.83;;;11.40;99.90;;;;;;5007741;28;20202;-33
2022/11/29 11:55:27;;;;;;;12.27;10.27;;;11.50;99.90;;;;;;5007540;28;20220;-33
2022/11/29 11:58:12;;;;;;;15.50;10.63;;;11.40;99.90;;;;;;5007351;28;20241;-33
2022/11/29 12:00:39;;;;;;;15.63;10.87;;;11.50;99.90;;;;;;5007678;28;20197;-33
2022/11/29 12:03:26;;;;;;;15.33;10.50;;;11.50;99.90;;;;;;5007538;28;20640;-33
2022/11/29 12:05:58;;;;;;;15.07;11.00;;;11.50;99.90;;;;;;5006953;28;20212;-33
2022/11/29 12:08:29;;;;;;;13.53;10.77;;;11.60;99.90;;;;;;5006831;28;20221;-33
2022/11/29 12:11:04;;;;;;;15.87;11.10;;;11.60;99.90;;;;;;5006932;28;20232;-33
2022/11/29 12:13:40;;;;;;;14.43;10.70;;;11.70;99.90;;;;;;5007194;28;20830;-33
2022/11/29 12:16:13;;;;;;;17.80;12.20;;;11.70;99.90;;;;;;5007341;28;20732;-32
2022/11/29 12:18:49;;;;;;;19.50;13.50;;;11.70;99.90;;;;;;5007447;28;20312;-33
2022/11/29 12:21:24;;;;;;;29.00;19.47;;;11.80;99.90;;;;;;5007485;28;20263;-33
2022/11/29 12:24:01;;;;;;;27.67;20.00;;;11.80;99.90;;;;;;5007308;28;20225;-32
2022/11/29 12:26:39;;;;;;;28.13;19.93;;;11.80;99.90;;;;;;5021740;28;20197;-33
2022/11/29 12:29:30;;;;;;;28.13;18.97;;;11.80;99.90;;;;;;5007129;28;20674;-31
2022/11/29 12:32:05;;;;;;;28.50;19.07;;;11.80;99.90;;;;;;5006759;28;20576;-31
2022/11/29 12:34:41;;;;;;;28.83;21.03;;;11.90;99.90;;;;;;5022233;28;20826;-31
2022/11/29 12:37:25;;;;;;;29.27;21.03;;;11.90;99.90;;;;;;5005945;28;20208;-31
2022/11/29 12:40:02;;;;;;;25.40;18.60;;;11.90;99.90;;;;;;5006360;28;20590;-31
2022/11/29 12:43:02;;;;;;;27.70;18.83;;;11.80;99.90;;;;;;5006910;28;21012;-31
2022/11/29 12:45:33;;;;;;;24.43;18.50;;;11.90;99.90;;;;;;5006867;28;20275;-31
2022/11/29 12:48:25;;;;;;;24.97;19.07;;;11.90;99.90;;;;;;5006547;28;20233;-31
2022/11/29 12:51:14;;;;;;;28.37;19.13;;;12.00;99.90;;;;;;5005274;28;20426;-31
2022/11/29 12:53:50;;;;;;;24.50;17.30;;;12.00;99.90;;;;;;5021359;28;20551;-31
2022/11/29 12:56:35;;;;;;;26.00;17.87;;;12.00;99.90;;;;;;5021303;28;20232;-31
2022/11/29 12:59:30;;;;;;;25.47;18.27;;;12.00;99.90;;;;;;5006566;28;20518;-31
2022/11/29 13:02:29;;;;;;;26.20;18.03;;;12.10;99.90;;;;;;4996179;28;20205;-31
2022/11/29 13:05:02;;;;;;;25.33;17.73;;;12.10;99.90;;;;;;5021575;28;20295;-31
2022/11/29 13:07:56;;;;;;;25.13;17.93;;;12.00;99.90;;;;;;5006433;28;20208;-31
2022/11/29 13:10:37;;;;;;;24.27;17.87;;;12.00;99.90;;;;;;5006533;28;20201;-31
2022/11/29 13:13:24;;;;;;;26.40;17.83;;;12.00;99.90;;;;;;5006672;28;20205;-32
2022/11/29 13:16:17;;;;;;;25.40;17.37;;;12.00;99.90;;;;;;5021427;28;20214;-31
2022/11/29 13:19:22;;;;;;;25.37;17.37;;;12.00;99.90;;;;;;5006646;28;20221;-31
2022/11/29 13:22:04;;;;;;;23.97;17.07;;;11.90;99.90;;;;;;5021078;28;20197;-32
2022/11/29 13:24:40;;;;;;;21.43;15.97;;;11.90;99.90;;;;;;5006444;28;20271;-31
2022/11/29 13:27:17;;;;;;;23.57;16.97;;;11.90;99.90;;;;;;5006314;28;20411;-31
2022/11/29 13:29:45;;;;;;;24.97;17.53;;;11.90;99.90;;;;;;5006779;28;20207;-31
2022/11/29 13:32:36;;;;;;;25.00;18.37;;;12.00;99.90;;;;;;5006250;28;20251;-31
2022/11/29 13:35:42;;;;;;;24.10;17.03;;;12.00;99.90;;;;;;5006869;28;20283;-31
2022/11/29 13:38:32;;;;;;;28.20;17.37;;;12.00;99.90;;;;;;4999974;28;20202;-31
2022/11/29 13:41:21;;;;;;;26.07;17.47;;;12.00;99.90;;;;;;4995416;28;20218;-31